Aviation Digital Data Service (ADDS)

Output produced by METARs form (1953 UTC 21 September 2021)
found at http://www.aviationweather.gov/metar/data/
 
Forecast for: KBOI (BOISE , ID, US)
Text: KBOI 211747Z 2118/2218 14010KT P6SM SKC
Forecast period: 1800 UTC 21 September 2021 to 1800 UTC 22 September 2021
Forecast type: FROM: standard forecast or significant change
Winds: from the SE (140 degrees) at 12 MPH (10 knots; 5.1 m/s)
Visibility: 6 or more miles (10+ km)
Clouds: clear skies
Weather: no significant weather forecast for this period
Text: TEMPO 2118/2122 15012G22KT
Forecast period: 1800 to 2200 UTC 21 September 2021
Forecast type: TEMPORARY: The following changes expected for less than half the time period
Winds: from the SSE (150 degrees) at 14 MPH (12 knots; 6.2 m/s)
gusting to 25 MPH (22 knots; 11.3 m/s)
Visibility: missing
Ceiling: unknown
Clouds: missing
Weather: no significant weather forecast for this period